今朝の成田(2017/06/04)

JJP12/JA05JJ(A320)

ANA179/JA828A(B788)

VNL100/JA09VA(A320)

CPA524/B-LBK(A333)

ANA832/JA608A(B763)

CPA006/B-LIE(B744)

JJP40/JA03JJ(A320)

ANA814/JA620A(B763) with winglet

ANA818/JA840A(B788)

AMX058/XA-AMR(B788)

JAL724/JA842J(B788)

JAL740/JA843J(B788)

JAL752/JA840J(B788)

NCA101/JA04KZ(B744)

JAL726/JA868J(B789)

ANA8522/JA8362(B763)

ALK454/4R-ALL(A333)

RJAA 032100Z 01006KT 9999 FEW030 BKN060 17/07 Q1006 NOSIG RMK 1CU030 6SC060 A2971 MOD TURB OBS AT 2055Z 5NM N BINKS 10000FT IN DES B763 ANA832

RJAA 032200Z 02004KT 9999 FEW030 BKN060 17/07 Q1006 NOSIG RMK 1CU030 6SC060 A2972

今朝の成田は雲があるようです。